CPA423 RCKH-VHHH
Flight info
| Callsign | CPA423 |
|---|---|
| Flight time | 1h 1m |
| Altitude | 34000 |
| Route | PARAS1B PARAS T7 WP521 G581 ELATO V522 ABBEY |
| Aircraft | A21N/M-SDE2E3FGHIRWXY/LB1 |
Departure
| Time | 2026-04-23 10:29 |
|---|---|
| Airport | Kaohsiung International Airport (RCKH) |
Arrival
| Time | 2026-04-23 11:31 |
|---|---|
| Airport | Hong Kong International Airport (VHHH) |
| Time | Latitude | Longitude | Altitude | Speed | Heading |
|---|---|---|---|---|---|
| 2026-04-23 09:19 | 22.57331 | 120.33878 | 34 ft | 0 kts | 102° |
| 2026-04-23 10:14 | 22.57335 | 120.33856 | 34 ft | 4 kts | 98° |
| 2026-04-23 10:14 | 22.57338 | 120.33828 | 33 ft | 4 kts | 101° |
| 2026-04-23 10:15 | 22.57340 | 120.33812 | 33 ft | 3 kts | 72° |
| 2026-04-23 10:15 | 22.57328 | 120.33787 | 33 ft | 4 kts | 41° |
| 2026-04-23 10:15 | 22.57306 | 120.33775 | 33 ft | 4 kts | 9° |
| 2026-04-23 10:15 | 22.57291 | 120.33773 | 33 ft | 1 kts | 2° |
| 2026-04-23 10:16 | 22.57290 | 120.33773 | 33 ft | 0 kts | 2° |
| 2026-04-23 10:20 | 22.57296 | 120.33773 | 33 ft | 1 kts | 2° |
| 2026-04-23 10:20 | 22.57313 | 120.33774 | 33 ft | 4 kts | 2° |
| 2026-04-23 10:20 | 22.57351 | 120.33776 | 33 ft | 6 kts | 0° |
| 2026-04-23 10:20 | 22.57399 | 120.33764 | 33 ft | 8 kts | 323° |
| 2026-04-23 10:21 | 22.57424 | 120.33706 | 33 ft | 9 kts | 282° |
| 2026-04-23 10:21 | 22.57467 | 120.33648 | 33 ft | 11 kts | 317° |
| 2026-04-23 10:21 | 22.57531 | 120.33595 | 32 ft | 12 kts | 345° |
| 2026-04-23 10:21 | 22.57585 | 120.33643 | 32 ft | 11 kts | 92° |
| 2026-04-23 10:22 | 22.57580 | 120.33731 | 33 ft | 13 kts | 92° |
| 2026-04-23 10:22 | 22.57578 | 120.33832 | 33 ft | 14 kts | 92° |
| 2026-04-23 10:22 | 22.57574 | 120.33943 | 34 ft | 16 kts | 92° |
| 2026-04-23 10:22 | 22.57570 | 120.34065 | 34 ft | 17 kts | 91° |
| 2026-04-23 10:23 | 22.57567 | 120.34197 | 35 ft | 18 kts | 91° |
| 2026-04-23 10:23 | 22.57564 | 120.34337 | 36 ft | 19 kts | 94° |
| 2026-04-23 10:23 | 22.57555 | 120.34486 | 36 ft | 20 kts | 91° |
| 2026-04-23 10:23 | 22.57552 | 120.34640 | 37 ft | 21 kts | 91° |
| 2026-04-23 10:24 | 22.57549 | 120.34805 | 37 ft | 22 kts | 91° |
| 2026-04-23 10:24 | 22.57542 | 120.34976 | 38 ft | 23 kts | 92° |
| 2026-04-23 10:24 | 22.57536 | 120.35156 | 38 ft | 24 kts | 92° |
| 2026-04-23 10:24 | 22.57531 | 120.35344 | 38 ft | 25 kts | 92° |
| 2026-04-23 10:25 | 22.57525 | 120.35540 | 40 ft | 27 kts | 92° |
| 2026-04-23 10:25 | 22.57521 | 120.35674 | 40 ft | 27 kts | 91° |
| 2026-04-23 10:25 | 22.57513 | 120.35932 | 42 ft | 25 kts | 92° |
| 2026-04-23 10:25 | 22.57508 | 120.36046 | 42 ft | 19 kts | 92° |
| 2026-04-23 10:26 | 22.57505 | 120.36210 | 43 ft | 14 kts | 92° |
| 2026-04-23 10:26 | 22.57502 | 120.36284 | 43 ft | 15 kts | 92° |
| 2026-04-23 10:26 | 22.57499 | 120.36372 | 43 ft | 7 kts | 91° |
| 2026-04-23 10:26 | 22.57498 | 120.36429 | 44 ft | 8 kts | 91° |
| 2026-04-23 10:27 | 22.57498 | 120.36499 | 44 ft | 10 kts | 78° |
| 2026-04-23 10:27 | 22.57542 | 120.36530 | 44 ft | 2 kts | 359° |
| 2026-04-23 10:27 | 22.57573 | 120.36530 | 44 ft | 4 kts | 359° |
| 2026-04-23 10:27 | 22.57596 | 120.36530 | 44 ft | 5 kts | 359° |
| 2026-04-23 10:28 | 22.57640 | 120.36528 | 44 ft | 7 kts | 352° |
| 2026-04-23 10:28 | 22.57662 | 120.36485 | 44 ft | 8 kts | 270° |
| 2026-04-23 10:28 | 22.57665 | 120.36392 | 44 ft | 28 kts | 272° |
| 2026-04-23 10:28 | 22.57681 | 120.35894 | 42 ft | 103 kts | 272° |
| 2026-04-23 10:29 | 22.57712 | 120.34885 | 39 ft | 162 kts | 272° |
| 2026-04-23 10:29 | 22.57753 | 120.33627 | 575 ft | 165 kts | 273° |
| 2026-04-23 10:29 | 22.57767 | 120.32377 | 1241 ft | 166 kts | 271° |
| 2026-04-23 10:29 | 22.57794 | 120.31135 | 1941 ft | 165 kts | 272° |
| 2026-04-23 10:30 | 22.57824 | 120.29889 | 2629 ft | 166 kts | 272° |
| 2026-04-23 10:30 | 22.57857 | 120.28632 | 3308 ft | 169 kts | 272° |
| 2026-04-23 10:30 | 22.57891 | 120.27291 | 3752 ft | 190 kts | 272° |
| 2026-04-23 10:30 | 22.57903 | 120.25791 | 4210 ft | 209 kts | 267° |
| 2026-04-23 10:31 | 22.57541 | 120.24208 | 4666 ft | 230 kts | 243° |
| 2026-04-23 10:31 | 22.56507 | 120.22767 | 5001 ft | 255 kts | 227° |
| 2026-04-23 10:31 | 22.55223 | 120.21363 | 5540 ft | 268 kts | 227° |
| 2026-04-23 10:31 | 22.53900 | 120.19921 | 6280 ft | 272 kts | 227° |
| 2026-04-23 10:32 | 22.52593 | 120.18474 | 7056 ft | 273 kts | 228° |
| 2026-04-23 10:32 | 22.51276 | 120.17001 | 7873 ft | 273 kts | 228° |
| 2026-04-23 10:32 | 22.49954 | 120.15516 | 8677 ft | 274 kts | 229° |
| 2026-04-23 10:32 | 22.48630 | 120.14017 | 9501 ft | 275 kts | 229° |
| 2026-04-23 10:33 | 22.47301 | 120.12515 | 10232 ft | 279 kts | 229° |
| 2026-04-23 10:33 | 22.45921 | 120.10949 | 10583 ft | 297 kts | 228° |
| 2026-04-23 10:33 | 22.44452 | 120.09281 | 10845 ft | 316 kts | 228° |
| 2026-04-23 10:33 | 22.42893 | 120.07511 | 11183 ft | 331 kts | 228° |
| 2026-04-23 10:34 | 22.41407 | 120.05587 | 11753 ft | 337 kts | 235° |
| 2026-04-23 10:34 | 22.40035 | 120.03507 | 12394 ft | 341 kts | 236° |
| 2026-04-23 10:34 | 22.38666 | 120.01399 | 13041 ft | 345 kts | 236° |
| 2026-04-23 10:34 | 22.37277 | 119.99259 | 13683 ft | 349 kts | 236° |
| 2026-04-23 10:35 | 22.35939 | 119.97095 | 14243 ft | 351 kts | 242° |
| 2026-04-23 10:35 | 22.35080 | 119.94636 | 14811 ft | 353 kts | 258° |
| 2026-04-23 10:35 | 22.34757 | 119.91996 | 15384 ft | 355 kts | 264° |
| 2026-04-23 10:35 | 22.34549 | 119.89330 | 15950 ft | 358 kts | 265° |
| 2026-04-23 10:36 | 22.34336 | 119.86639 | 16513 ft | 360 kts | 264° |
| 2026-04-23 10:36 | 22.34108 | 119.83932 | 17043 ft | 363 kts | 264° |
| 2026-04-23 10:36 | 22.33868 | 119.81210 | 17578 ft | 365 kts | 264° |
| 2026-04-23 10:36 | 22.33621 | 119.78470 | 18088 ft | 368 kts | 264° |
| 2026-04-23 10:37 | 22.33368 | 119.75703 | 18527 ft | 370 kts | 264° |
| 2026-04-23 10:37 | 22.33114 | 119.72928 | 18961 ft | 373 kts | 264° |
| 2026-04-23 10:37 | 22.32861 | 119.70171 | 19394 ft | 374 kts | 264° |
| 2026-04-23 10:37 | 22.32598 | 119.67359 | 19836 ft | 376 kts | 264° |
| 2026-04-23 10:38 | 22.32334 | 119.64540 | 20280 ft | 378 kts | 264° |
| 2026-04-23 10:38 | 22.32069 | 119.61707 | 20722 ft | 380 kts | 264° |
| 2026-04-23 10:38 | 22.31805 | 119.58857 | 21169 ft | 382 kts | 264° |
| 2026-04-23 10:38 | 22.31537 | 119.55985 | 21619 ft | 385 kts | 264° |
| 2026-04-23 10:39 | 22.31267 | 119.53101 | 22073 ft | 387 kts | 264° |
| 2026-04-23 10:39 | 22.30994 | 119.50207 | 22521 ft | 389 kts | 264° |
| 2026-04-23 10:39 | 22.30723 | 119.47295 | 22949 ft | 391 kts | 264° |
| 2026-04-23 10:39 | 22.30446 | 119.44364 | 23371 ft | 393 kts | 264° |
| 2026-04-23 10:40 | 22.30163 | 119.41412 | 23726 ft | 395 kts | 264° |
| 2026-04-23 10:40 | 22.29874 | 119.38455 | 24060 ft | 397 kts | 264° |
| 2026-04-23 10:40 | 22.29584 | 119.35483 | 24380 ft | 399 kts | 264° |
| 2026-04-23 10:40 | 22.29300 | 119.32497 | 24704 ft | 401 kts | 264° |
| 2026-04-23 10:41 | 22.29016 | 119.29492 | 25025 ft | 403 kts | 264° |
| 2026-04-23 10:41 | 22.28728 | 119.26473 | 25341 ft | 405 kts | 264° |
| 2026-04-23 10:41 | 22.28441 | 119.23482 | 25661 ft | 407 kts | 263° |
| 2026-04-23 10:41 | 22.28147 | 119.20436 | 25986 ft | 408 kts | 263° |
| 2026-04-23 10:42 | 22.27851 | 119.17373 | 26301 ft | 410 kts | 263° |
| 2026-04-23 10:42 | 22.27557 | 119.14304 | 26612 ft | 412 kts | 263° |
| 2026-04-23 10:42 | 22.27269 | 119.11224 | 26906 ft | 414 kts | 263° |
| 2026-04-23 10:42 | 22.26974 | 119.08122 | 27204 ft | 416 kts | 263° |
| 2026-04-23 10:43 | 22.26675 | 119.05005 | 27487 ft | 418 kts | 263° |
| 2026-04-23 10:43 | 22.26370 | 119.01877 | 27766 ft | 420 kts | 263° |
| 2026-04-23 10:43 | 22.26067 | 118.98743 | 28048 ft | 421 kts | 263° |
| 2026-04-23 10:43 | 22.25755 | 118.95591 | 28311 ft | 423 kts | 263° |
| 2026-04-23 10:44 | 22.25441 | 118.92427 | 28601 ft | 425 kts | 263° |
| 2026-04-23 10:44 | 22.25129 | 118.89254 | 28893 ft | 426 kts | 262° |
| 2026-04-23 10:44 | 22.24817 | 118.86068 | 29171 ft | 428 kts | 263° |
| 2026-04-23 10:44 | 22.24505 | 118.82870 | 29420 ft | 429 kts | 263° |
| 2026-04-23 10:45 | 22.24189 | 118.79654 | 29716 ft | 430 kts | 263° |
| 2026-04-23 10:45 | 22.23877 | 118.76493 | 30045 ft | 429 kts | 263° |
| 2026-04-23 10:45 | 22.23563 | 118.73295 | 30335 ft | 428 kts | 263° |
| 2026-04-23 10:45 | 22.23248 | 118.70095 | 30626 ft | 427 kts | 263° |
| 2026-04-23 10:46 | 22.22934 | 118.66911 | 30905 ft | 427 kts | 263° |
| 2026-04-23 10:46 | 22.22616 | 118.63722 | 31227 ft | 425 kts | 263° |
| 2026-04-23 10:46 | 22.22300 | 118.60551 | 31549 ft | 424 kts | 263° |
| 2026-04-23 10:46 | 22.21983 | 118.57386 | 31845 ft | 423 kts | 263° |
| 2026-04-23 10:47 | 22.21705 | 118.54225 | 32098 ft | 423 kts | 266° |
| 2026-04-23 10:47 | 22.21749 | 118.51048 | 32352 ft | 424 kts | 274° |
| 2026-04-23 10:47 | 22.22110 | 118.47889 | 32620 ft | 424 kts | 276° |
| 2026-04-23 10:47 | 22.22507 | 118.44782 | 32884 ft | 424 kts | 276° |
| 2026-04-23 10:48 | 22.22899 | 118.41631 | 33133 ft | 423 kts | 276° |
| 2026-04-23 10:48 | 22.23282 | 118.38479 | 33375 ft | 423 kts | 276° |
| 2026-04-23 10:48 | 22.23652 | 118.35338 | 33607 ft | 423 kts | 276° |
| 2026-04-23 10:48 | 22.24016 | 118.32184 | 33796 ft | 424 kts | 276° |
| 2026-04-23 10:49 | 22.24751 | 118.25838 | 33882 ft | 426 kts | 276° |
| 2026-04-23 10:49 | 22.25491 | 118.19471 | 33858 ft | 426 kts | 275° |
| 2026-04-23 10:50 | 22.26224 | 118.13127 | 33847 ft | 426 kts | 276° |
| 2026-04-23 10:50 | 22.26889 | 118.07160 | 33830 ft | 426 kts | 275° |
| 2026-04-23 10:51 | 22.27586 | 118.00798 | 33847 ft | 427 kts | 276° |
| 2026-04-23 10:51 | 22.28311 | 117.94430 | 33852 ft | 427 kts | 276° |
| 2026-04-23 10:52 | 22.29038 | 117.88067 | 33851 ft | 427 kts | 276° |
| 2026-04-23 10:52 | 22.29766 | 117.81697 | 33846 ft | 427 kts | 276° |
| 2026-04-23 10:53 | 22.30484 | 117.75328 | 33845 ft | 427 kts | 276° |
| 2026-04-23 10:53 | 22.31202 | 117.68950 | 33842 ft | 427 kts | 276° |
| 2026-04-23 10:54 | 22.31914 | 117.62584 | 33843 ft | 427 kts | 276° |
| 2026-04-23 10:54 | 22.32632 | 117.56209 | 33842 ft | 427 kts | 276° |
| 2026-04-23 10:55 | 22.33284 | 117.49831 | 33841 ft | 427 kts | 271° |
| 2026-04-23 10:55 | 22.33237 | 117.43427 | 33844 ft | 426 kts | 268° |
| 2026-04-23 10:56 | 22.33111 | 117.37065 | 33843 ft | 426 kts | 268° |
| 2026-04-23 10:56 | 22.32991 | 117.30658 | 33843 ft | 426 kts | 268° |
| 2026-04-23 10:57 | 22.32871 | 117.24254 | 33843 ft | 426 kts | 268° |
| 2026-04-23 10:57 | 22.32734 | 117.17853 | 33844 ft | 426 kts | 268° |
| 2026-04-23 10:58 | 22.32605 | 117.11473 | 33846 ft | 424 kts | 268° |
| 2026-04-23 10:58 | 22.32479 | 117.05098 | 33845 ft | 424 kts | 268° |
| 2026-04-23 10:59 | 22.32361 | 116.98726 | 33844 ft | 424 kts | 268° |
| 2026-04-23 10:59 | 22.32228 | 116.92347 | 33844 ft | 424 kts | 268° |
| 2026-04-23 11:00 | 22.32098 | 116.86011 | 33847 ft | 425 kts | 268° |
| 2026-04-23 11:00 | 22.31970 | 116.79611 | 33833 ft | 429 kts | 267° |
| 2026-04-23 11:01 | 22.31832 | 116.73145 | 33841 ft | 431 kts | 267° |
| 2026-04-23 11:01 | 22.31681 | 116.66665 | 33842 ft | 431 kts | 267° |
| 2026-04-23 11:02 | 22.31536 | 116.60196 | 33843 ft | 431 kts | 267° |
| 2026-04-23 11:02 | 22.31393 | 116.53720 | 33844 ft | 432 kts | 267° |
| 2026-04-23 11:03 | 22.31242 | 116.47281 | 33842 ft | 432 kts | 267° |
| 2026-04-23 11:03 | 22.31088 | 116.40793 | 33843 ft | 432 kts | 267° |
| 2026-04-23 11:04 | 22.30934 | 116.34301 | 33844 ft | 432 kts | 267° |
| 2026-04-23 11:04 | 22.30773 | 116.27815 | 33844 ft | 432 kts | 267° |
| 2026-04-23 11:05 | 22.30612 | 116.21343 | 33848 ft | 430 kts | 267° |
| 2026-04-23 11:05 | 22.30447 | 116.14909 | 33847 ft | 430 kts | 266° |
| 2026-04-23 11:06 | 22.30202 | 116.05269 | 33472 ft | 424 kts | 267° |
| 2026-04-23 11:06 | 22.30115 | 116.02078 | 33183 ft | 425 kts | 267° |
| 2026-04-23 11:07 | 22.30032 | 115.98884 | 32921 ft | 426 kts | 267° |
| 2026-04-23 11:07 | 22.29952 | 115.95687 | 32671 ft | 426 kts | 267° |
| 2026-04-23 11:07 | 22.29867 | 115.92495 | 32430 ft | 425 kts | 267° |
| 2026-04-23 11:07 | 22.29782 | 115.89300 | 32189 ft | 425 kts | 267° |
| 2026-04-23 11:08 | 22.29695 | 115.86102 | 31942 ft | 426 kts | 267° |
| 2026-04-23 11:08 | 22.29605 | 115.82902 | 31702 ft | 426 kts | 268° |
| 2026-04-23 11:08 | 22.29523 | 115.79747 | 31274 ft | 425 kts | 268° |
| 2026-04-23 11:08 | 22.29439 | 115.76567 | 30641 ft | 424 kts | 268° |
| 2026-04-23 11:09 | 22.29356 | 115.73343 | 29942 ft | 423 kts | 268° |
| 2026-04-23 11:09 | 22.29272 | 115.70207 | 29123 ft | 424 kts | 268° |
| 2026-04-23 11:09 | 22.29181 | 115.67017 | 28357 ft | 425 kts | 268° |
| 2026-04-23 11:09 | 22.29097 | 115.63828 | 27691 ft | 424 kts | 268° |
| 2026-04-23 11:10 | 22.29014 | 115.60646 | 27040 ft | 423 kts | 268° |
| 2026-04-23 11:10 | 22.28931 | 115.57481 | 26395 ft | 421 kts | 268° |
| 2026-04-23 11:10 | 22.28842 | 115.54324 | 25763 ft | 420 kts | 268° |
| 2026-04-23 11:10 | 22.28754 | 115.51192 | 25231 ft | 414 kts | 267° |
| 2026-04-23 11:11 | 22.28666 | 115.48089 | 24961 ft | 411 kts | 267° |
| 2026-04-23 11:11 | 22.28582 | 115.45008 | 24868 ft | 410 kts | 267° |
| 2026-04-23 11:11 | 22.28494 | 115.41933 | 24847 ft | 410 kts | 267° |
| 2026-04-23 11:11 | 22.28406 | 115.38853 | 24846 ft | 410 kts | 267° |
| 2026-04-23 11:12 | 22.28316 | 115.35779 | 24847 ft | 410 kts | 267° |
| 2026-04-23 11:12 | 22.28229 | 115.32773 | 24560 ft | 402 kts | 268° |
| 2026-04-23 11:12 | 22.28137 | 115.29730 | 23579 ft | 409 kts | 266° |
| 2026-04-23 11:12 | 22.28044 | 115.26635 | 22427 ft | 416 kts | 266° |
| 2026-04-23 11:13 | 22.27951 | 115.23513 | 21635 ft | 414 kts | 267° |
| 2026-04-23 11:13 | 22.27851 | 115.20425 | 20917 ft | 410 kts | 266° |
| 2026-04-23 11:13 | 22.27753 | 115.17369 | 20317 ft | 404 kts | 267° |
| 2026-04-23 11:13 | 22.27657 | 115.14375 | 20001 ft | 392 kts | 267° |
| 2026-04-23 11:14 | 22.27568 | 115.11495 | 19880 ft | 380 kts | 267° |
| 2026-04-23 11:14 | 22.27478 | 115.08664 | 19844 ft | 370 kts | 267° |
| 2026-04-23 11:14 | 22.27393 | 115.05957 | 19833 ft | 351 kts | 267° |
| 2026-04-23 11:14 | 22.27338 | 115.04210 | 19832 ft | 339 kts | 266° |
| 2026-04-23 11:15 | 22.27319 | 115.00953 | 19836 ft | 317 kts | 275° |
| 2026-04-23 11:15 | 22.27688 | 114.98616 | 19843 ft | 314 kts | 279° |
| 2026-04-23 11:15 | 22.28139 | 114.96311 | 19849 ft | 314 kts | 280° |
| 2026-04-23 11:15 | 22.28437 | 114.94801 | 19706 ft | 309 kts | 279° |
| 2026-04-23 11:16 | 22.29016 | 114.91778 | 18933 ft | 314 kts | 279° |
| 2026-04-23 11:16 | 22.29458 | 114.89444 | 18235 ft | 321 kts | 279° |
| 2026-04-23 11:16 | 22.29909 | 114.87041 | 17315 ft | 332 kts | 279° |
| 2026-04-23 11:16 | 22.30219 | 114.85372 | 16676 ft | 339 kts | 279° |
| 2026-04-23 11:17 | 22.30692 | 114.82835 | 15727 ft | 349 kts | 279° |
| 2026-04-23 11:17 | 22.31180 | 114.80231 | 14775 ft | 358 kts | 279° |
| 2026-04-23 11:17 | 22.31672 | 114.77591 | 13857 ft | 367 kts | 279° |
| 2026-04-23 11:17 | 22.32176 | 114.74874 | 13036 ft | 369 kts | 279° |
| 2026-04-23 11:18 | 22.32682 | 114.72168 | 12371 ft | 366 kts | 279° |
| 2026-04-23 11:18 | 22.33183 | 114.69480 | 11795 ft | 362 kts | 279° |
| 2026-04-23 11:18 | 22.33669 | 114.66868 | 11469 ft | 347 kts | 279° |
| 2026-04-23 11:18 | 22.34135 | 114.64373 | 11220 ft | 330 kts | 279° |
| 2026-04-23 11:19 | 22.34577 | 114.61995 | 10974 ft | 315 kts | 279° |
| 2026-04-23 11:19 | 22.34995 | 114.59728 | 10714 ft | 300 kts | 279° |
| 2026-04-23 11:19 | 22.35394 | 114.57566 | 10552 ft | 288 kts | 279° |
| 2026-04-23 11:19 | 22.35778 | 114.55487 | 10384 ft | 278 kts | 279° |
| 2026-04-23 11:20 | 22.36154 | 114.53445 | 10009 ft | 276 kts | 279° |
| 2026-04-23 11:20 | 22.36528 | 114.51411 | 9602 ft | 275 kts | 279° |
| 2026-04-23 11:20 | 22.36900 | 114.49387 | 9186 ft | 275 kts | 279° |
| 2026-04-23 11:20 | 22.37269 | 114.47365 | 8778 ft | 274 kts | 278° |
| 2026-04-23 11:21 | 22.37637 | 114.45355 | 8382 ft | 273 kts | 278° |
| 2026-04-23 11:21 | 22.38003 | 114.43348 | 7968 ft | 271 kts | 278° |
| 2026-04-23 11:21 | 22.38370 | 114.41352 | 7586 ft | 271 kts | 279° |
| 2026-04-23 11:21 | 22.38735 | 114.39361 | 7217 ft | 270 kts | 278° |
| 2026-04-23 11:22 | 22.39100 | 114.37375 | 6856 ft | 269 kts | 278° |
| 2026-04-23 11:22 | 22.39449 | 114.35409 | 6622 ft | 263 kts | 277° |
| 2026-04-23 11:22 | 22.39769 | 114.33524 | 6490 ft | 253 kts | 278° |
| 2026-04-23 11:22 | 22.40085 | 114.31693 | 6377 ft | 243 kts | 278° |
| 2026-04-23 11:23 | 22.40408 | 114.29949 | 6263 ft | 230 kts | 278° |
| 2026-04-23 11:23 | 22.40721 | 114.28320 | 6195 ft | 212 kts | 278° |
| 2026-04-23 11:23 | 22.41004 | 114.26838 | 6220 ft | 192 kts | 278° |
| 2026-04-23 11:23 | 22.41210 | 114.25440 | 6125 ft | 185 kts | 272° |
| 2026-04-23 11:24 | 22.41237 | 114.24057 | 5897 ft | 183 kts | 265° |
| 2026-04-23 11:24 | 22.41116 | 114.22697 | 5654 ft | 181 kts | 259° |
| 2026-04-23 11:24 | 22.40890 | 114.21354 | 5399 ft | 182 kts | 256° |
| 2026-04-23 11:24 | 22.40600 | 114.20050 | 5153 ft | 179 kts | 253° |
| 2026-04-23 11:25 | 22.40263 | 114.18753 | 4907 ft | 180 kts | 252° |
| 2026-04-23 11:25 | 22.39902 | 114.17447 | 4660 ft | 180 kts | 253° |
| 2026-04-23 11:25 | 22.39539 | 114.16164 | 4408 ft | 178 kts | 250° |
| 2026-04-23 11:25 | 22.39143 | 114.14901 | 4161 ft | 177 kts | 250° |
| 2026-04-23 11:26 | 22.38740 | 114.13637 | 3923 ft | 179 kts | 250° |
| 2026-04-23 11:26 | 22.38332 | 114.12362 | 3699 ft | 179 kts | 250° |
| 2026-04-23 11:26 | 22.37925 | 114.11089 | 3475 ft | 178 kts | 250° |
| 2026-04-23 11:26 | 22.37524 | 114.09839 | 3240 ft | 175 kts | 250° |
| 2026-04-23 11:27 | 22.37124 | 114.08592 | 3011 ft | 175 kts | 251° |
| 2026-04-23 11:27 | 22.36724 | 114.07342 | 2780 ft | 176 kts | 251° |
| 2026-04-23 11:27 | 22.36318 | 114.06076 | 2538 ft | 183 kts | 253° |
| 2026-04-23 11:27 | 22.35903 | 114.04781 | 2307 ft | 186 kts | 255° |
| 2026-04-23 11:28 | 22.35476 | 114.03450 | 2063 ft | 189 kts | 254° |
| 2026-04-23 11:28 | 22.35053 | 114.02133 | 1817 ft | 180 kts | 254° |
| 2026-04-23 11:28 | 22.34654 | 114.00887 | 1582 ft | 172 kts | 254° |
| 2026-04-23 11:28 | 22.34264 | 113.99671 | 1342 ft | 169 kts | 254° |
| 2026-04-23 11:29 | 22.33882 | 113.98483 | 1101 ft | 162 kts | 255° |
| 2026-04-23 11:29 | 22.33519 | 113.97346 | 912 ft | 157 kts | 255° |
| 2026-04-23 11:29 | 22.33164 | 113.96248 | 734 ft | 154 kts | 257° |
| 2026-04-23 11:29 | 22.32817 | 113.95165 | 528 ft | 151 kts | 256° |
| 2026-04-23 11:30 | 22.32476 | 113.94097 | 323 ft | 155 kts | 256° |
| 2026-04-23 11:30 | 22.32125 | 113.93024 | 156 ft | 149 kts | 256° |
| 2026-04-23 11:30 | 22.31795 | 113.91984 | 42 ft | 138 kts | 255° |
| 2026-04-23 11:30 | 22.31533 | 113.91171 | 37 ft | 85 kts | 252° |
| 2026-04-23 11:31 | 22.31416 | 113.90808 | 37 ft | 18 kts | 248° |
| 2026-04-23 11:31 | 22.31351 | 113.90690 | 37 ft | 19 kts | 227° |
| 2026-04-23 11:31 | 22.31250 | 113.90602 | 36 ft | 9 kts | 221° |
| 2026-04-23 11:31 | 22.31197 | 113.90552 | 37 ft | 11 kts | 221° |
| 2026-04-23 11:32 | 22.31190 | 113.90545 | 37 ft | 0 kts | 221° |
| 2026-04-23 11:32 | 22.31187 | 113.90543 | 37 ft | 2 kts | 221° |
| 2026-04-23 11:32 | 22.31171 | 113.90527 | 37 ft | 5 kts | 221° |
| 2026-04-23 11:33 | 22.31135 | 113.90499 | 37 ft | 8 kts | 194° |
| 2026-04-23 11:33 | 22.31072 | 113.90510 | 37 ft | 11 kts | 143° |
| 2026-04-23 11:33 | 22.31071 | 113.90599 | 37 ft | 14 kts | 68° |
| 2026-04-23 11:33 | 22.31112 | 113.90710 | 38 ft | 17 kts | 69° |
| 2026-04-23 11:34 | 22.31149 | 113.90844 | 38 ft | 20 kts | 71° |
| 2026-04-23 11:34 | 22.31198 | 113.90994 | 38 ft | 22 kts | 70° |
| 2026-04-23 11:34 | 22.31253 | 113.91161 | 38 ft | 25 kts | 70° |
| 2026-04-23 11:34 | 22.31311 | 113.91342 | 38 ft | 26 kts | 71° |
| 2026-04-23 11:35 | 22.31371 | 113.91528 | 38 ft | 27 kts | 70° |
| 2026-04-23 11:35 | 22.31427 | 113.91704 | 38 ft | 16 kts | 71° |
| 2026-04-23 11:35 | 22.31466 | 113.91823 | 38 ft | 18 kts | 70° |
| 2026-04-23 11:35 | 22.31509 | 113.91953 | 38 ft | 19 kts | 70° |
| 2026-04-23 11:36 | 22.31554 | 113.92091 | 38 ft | 20 kts | 71° |
| 2026-04-23 11:36 | 22.31598 | 113.92237 | 38 ft | 21 kts | 71° |
| 2026-04-23 11:36 | 22.31643 | 113.92373 | 38 ft | 11 kts | 71° |
| 2026-04-23 11:36 | 22.31628 | 113.92459 | 38 ft | 12 kts | 117° |
| 2026-04-23 11:37 | 22.31587 | 113.92544 | 38 ft | 13 kts | 117° |
| 2026-04-23 11:37 | 22.31545 | 113.92636 | 38 ft | 14 kts | 114° |
| 2026-04-23 11:37 | 22.31503 | 113.92734 | 37 ft | 14 kts | 116° |
| 2026-04-23 11:37 | 22.31487 | 113.92801 | 37 ft | 9 kts | 70° |
| 2026-04-23 11:38 | 22.31511 | 113.92867 | 37 ft | 10 kts | 73° |
| 2026-04-23 11:38 | 22.31534 | 113.92943 | 37 ft | 11 kts | 70° |
| 2026-04-23 11:38 | 22.31561 | 113.93026 | 37 ft | 12 kts | 71° |
| 2026-04-23 11:38 | 22.31588 | 113.93113 | 37 ft | 12 kts | 71° |
| 2026-04-23 11:39 | 22.31611 | 113.93172 | 37 ft | 6 kts | 60° |
| 2026-04-23 11:39 | 22.31619 | 113.93197 | 37 ft | 0 kts | 77° |
| 2026-04-23 11:40 | 22.31620 | 113.93200 | 37 ft | 1 kts | 77° |
| 2026-04-23 11:40 | 22.31622 | 113.93212 | 37 ft | 2 kts | 86° |
| 2026-04-23 11:41 | 22.31620 | 113.93234 | 37 ft | 4 kts | 98° |
| 2026-04-23 11:41 | 22.31612 | 113.93265 | 37 ft | 5 kts | 110° |
| 2026-04-23 11:41 | 22.31606 | 113.93283 | 37 ft | 0 kts | 109° |